sensor_id;sensor_type;location;lat;lon;timestamp;pressure;altitude;pressure_sealevel;temperature;humidity
63927;BME280;50103;47.960;21.712;2023-02-01T06:01:38;100137.95;;;1.65;99.94
63927;BME280;50103;47.960;21.712;2023-02-01T06:04:03;100144.89;;;1.67;99.97
63927;BME280;50103;47.960;21.712;2023-02-01T06:06:29;100151.14;;;1.68;99.93
63927;BME280;50103;47.960;21.712;2023-02-01T06:08:54;100149.02;;;1.68;99.93
63927;BME280;50103;47.960;21.712;2023-02-01T06:11:20;100151.67;;;1.67;99.97
63927;BME280;50103;47.960;21.712;2023-02-01T06:13:46;100157.07;;;1.67;99.87
63927;BME280;50103;47.960;21.712;2023-02-01T06:16:11;100163.17;;;1.67;99.94
63927;BME280;50103;47.960;21.712;2023-02-01T06:18:37;100175.05;;;1.68;99.89
63927;BME280;50103;47.960;21.712;2023-02-01T06:21:03;100187.64;;;1.67;99.98
63927;BME280;50103;47.960;21.712;2023-02-01T06:23:30;100195.82;;;1.67;99.97
63927;BME280;50103;47.960;21.712;2023-02-01T06:26:01;100206.30;;;1.67;99.94
63927;BME280;50103;47.960;21.712;2023-02-01T06:28:29;100212.55;;;1.68;100.00
63927;BME280;50103;47.960;21.712;2023-02-01T06:30:54;100206.27;;;1.67;99.97
63927;BME280;50103;47.960;21.712;2023-02-01T06:33:20;100203.40;;;1.66;100.00
63927;BME280;50103;47.960;21.712;2023-02-01T06:35:45;100206.11;;;1.63;100.00
63927;BME280;50103;47.960;21.712;2023-02-01T06:38:13;100208.23;;;1.63;100.00
63927;BME280;50103;47.960;21.712;2023-02-01T06:40:40;100208.63;;;1.62;100.00
63927;BME280;50103;47.960;21.712;2023-02-01T06:43:08;100208.53;;;1.60;100.00
63927;BME280;50103;47.960;21.712;2023-02-01T06:45:33;100201.04;;;1.60;100.00
63927;BME280;50103;47.960;21.712;2023-02-01T06:47:59;100196.54;;;1.59;100.00
63927;BME280;50103;47.960;21.712;2023-02-01T06:50:26;100196.02;;;1.59;100.00
63927;BME280;50103;47.960;21.712;2023-02-01T06:52:52;100187.53;;;1.57;100.00
63927;BME280;50103;47.960;21.712;2023-02-01T06:55:19;100183.11;;;1.55;100.00
63927;BME280;50103;47.960;21.712;2023-02-01T06:57:44;100190.16;;;1.53;100.00
63927;BME280;50103;47.960;21.712;2023-02-01T07:00:10;100188.47;;;1.52;100.00
63927;BME280;50103;47.960;21.712;2023-02-01T07:02:37;100181.33;;;1.51;100.00
63927;BME280;50103;47.960;21.712;2023-02-01T07:05:04;100176.64;;;1.51;100.00
63927;BME280;50103;47.960;21.712;2023-02-01T07:07:30;100179.27;;;1.50;100.00
63927;BME280;50103;47.960;21.712;2023-02-01T07:09:55;100174.95;;;1.50;100.00
63927;BME280;50103;47.960;21.712;2023-02-01T07:12:21;100177.93;;;1.49;100.00
63927;BME280;50103;47.960;21.712;2023-02-01T07:14:47;100184.21;;;1.49;100.00
63927;BME280;50103;47.960;21.712;2023-02-01T07:17:12;100185.29;;;1.49;100.00
63927;BME280;50103;47.960;21.712;2023-02-01T07:19:38;100187.89;;;1.49;100.00
63927;BME280;50103;47.960;21.712;2023-02-01T07:22:04;100192.59;;;1.49;100.00
63927;BME280;50103;47.960;21.712;2023-02-01T07:24:29;100195.36;;;1.49;100.00
63927;BME280;50103;47.960;21.712;2023-02-01T07:26:56;100195.46;;;1.51;100.00
63927;BME280;50103;47.960;21.712;2023-02-01T07:29:23;100202.16;;;1.54;100.00
63927;BME280;50103;47.960;21.712;2023-02-01T07:31:49;100202.21;;;1.57;100.00
63927;BME280;50103;47.960;21.712;2023-02-01T07:34:18;100199.64;;;1.60;100.00
63927;BME280;50103;47.960;21.712;2023-02-01T07:36:44;100202.55;;;1.65;100.00
63927;BME280;50103;47.960;21.712;2023-02-01T07:39:09;100200.66;;;1.69;100.00
63927;BME280;50103;47.960;21.712;2023-02-01T07:41:35;100203.69;;;1.71;100.00
63927;BME280;50103;47.960;21.712;2023-02-01T07:44:00;100205.70;;;1.73;100.00
63927;BME280;50103;47.960;21.712;2023-02-01T07:46:26;100200.73;;;1.75;100.00
63927;BME280;50103;47.960;21.712;2023-02-01T07:48:52;100201.00;;;1.78;100.00
63927;BME280;50103;47.960;21.712;2023-02-01T07:51:17;100206.52;;;1.83;100.00
63927;BME280;50103;47.960;21.712;2023-02-01T07:53:44;100212.17;;;1.89;100.00
63927;BME280;50103;47.960;21.712;2023-02-01T07:56:12;100212.51;;;1.97;100.00
63927;BME280;50103;47.960;21.712;2023-02-01T07:58:39;100209.23;;;2.04;100.00
63927;BME280;50103;47.960;21.712;2023-02-01T08:01:05;100210.63;;;2.12;100.00
63927;BME280;50103;47.960;21.712;2023-02-01T08:06:41;100219.02;;;2.32;100.00
63927;BME280;50103;47.960;21.712;2023-02-01T08:09:07;100212.10;;;2.38;100.00
63927;BME280;50103;47.960;21.712;2023-02-01T08:11:33;100207.94;;;2.45;100.00
63927;BME280;50103;47.960;21.712;2023-02-01T08:13:59;100202.92;;;2.52;99.99
63927;BME280;50103;47.960;21.712;2023-02-01T08:16:25;100201.10;;;2.57;99.93
63927;BME280;50103;47.960;21.712;2023-02-01T08:18:52;100197.67;;;2.63;99.97
63927;BME280;50103;47.960;21.712;2023-02-01T08:21:24;100197.20;;;2.69;99.70
63927;BME280;50103;47.960;21.712;2023-02-01T08:23:50;100197.09;;;2.76;99.65
63927;BME280;50103;47.960;21.712;2023-02-01T08:26:19;100196.64;;;2.81;99.33
63927;BME280;50103;47.960;21.712;2023-02-01T08:28:48;100191.71;;;2.86;99.25
63927;BME280;50103;47.960;21.712;2023-02-01T08:31:16;100192.07;;;2.90;99.53
63927;BME280;50103;47.960;21.712;2023-02-01T08:33:43;100194.58;;;2.92;99.19
63927;BME280;50103;47.960;21.712;2023-02-01T08:36:10;100198.30;;;2.94;99.11
63927;BME280;50103;47.960;21.712;2023-02-01T08:38:37;100201.52;;;2.97;98.88
63927;BME280;50103;47.960;21.712;2023-02-01T08:41:11;100207.32;;;2.99;98.90
63927;BME280;50103;47.960;21.712;2023-02-01T08:43:37;100211.20;;;3.03;98.73
63927;BME280;50103;47.960;21.712;2023-02-01T08:46:04;100209.96;;;3.07;98.69
63927;BME280;50103;47.960;21.712;2023-02-01T08:48:30;100214.38;;;3.13;98.71
63927;BME280;50103;47.960;21.712;2023-02-01T08:50:57;100214.05;;;3.20;98.67
63927;BME280;50103;47.960;21.712;2023-02-01T08:53:23;100220.50;;;3.27;98.27
63927;BME280;50103;47.960;21.712;2023-02-01T08:55:48;100228.74;;;3.34;98.22
63927;BME280;50103;47.960;21.712;2023-02-01T08:58:14;100236.66;;;3.44;97.88
63927;BME280;50103;47.960;21.712;2023-02-01T09:00:43;100238.79;;;3.55;97.61
63927;BME280;50103;47.960;21.712;2023-02-01T09:03:11;100243.73;;;3.64;96.93
63927;BME280;50103;47.960;21.712;2023-02-01T09:05:37;100244.31;;;3.73;96.38
63927;BME280;50103;47.960;21.712;2023-02-01T09:08:03;100241.14;;;3.80;95.62
63927;BME280;50103;47.960;21.712;2023-02-01T09:10:29;100242.74;;;3.87;94.39
63927;BME280;50103;47.960;21.712;2023-02-01T09:12:55;100239.20;;;3.94;93.42
63927;BME280;50103;47.960;21.712;2023-02-01T09:15:21;100231.63;;;3.99;93.59
63927;BME280;50103;47.960;21.712;2023-02-01T09:17:46;100225.41;;;4.04;93.15
63927;BME280;50103;47.960;21.712;2023-02-01T09:20:12;100220.41;;;4.09;93.13
63927;BME280;50103;47.960;21.712;2023-02-01T09:22:38;100219.40;;;4.15;92.95
63927;BME280;50103;47.960;21.712;2023-02-01T09:25:04;100221.33;;;4.21;92.49
63927;BME280;50103;47.960;21.712;2023-02-01T09:27:30;100225.73;;;4.28;92.46
63927;BME280;50103;47.960;21.712;2023-02-01T09:29:56;100225.38;;;4.35;91.34
63927;BME280;50103;47.960;21.712;2023-02-01T09:32:23;100228.30;;;4.42;90.56
63927;BME280;50103;47.960;21.712;2023-02-01T09:34:49;100223.55;;;4.52;90.27
63927;BME280;50103;47.960;21.712;2023-02-01T09:37:15;100218.77;;;4.63;89.49
63927;BME280;50103;47.960;21.712;2023-02-01T09:39:41;100212.54;;;4.74;88.59
63927;BME280;50103;47.960;21.712;2023-02-01T09:42:46;100206.45;;;4.83;88.59
63927;BME280;50103;47.960;21.712;2023-02-01T09:45:44;100202.05;;;4.92;88.24
63927;BME280;50103;47.960;21.712;2023-02-01T09:48:20;100199.79;;;4.99;87.39
63927;BME280;50103;47.960;21.712;2023-02-01T09:50:55;100201.52;;;5.05;86.78
63927;BME280;50103;47.960;21.712;2023-02-01T09:53:30;100200.13;;;5.11;85.71
63927;BME280;50103;47.960;21.712;2023-02-01T09:56:26;100196.92;;;5.15;85.07
63927;BME280;50103;47.960;21.712;2023-02-01T09:59:26;100199.84;;;5.19;85.11
63927;BME280;50103;47.960;21.712;2023-02-01T10:01:56;100198.72;;;5.26;85.03
63927;BME280;50103;47.960;21.712;2023-02-01T10:04:25;100200.63;;;5.34;83.81
63927;BME280;50103;47.960;21.712;2023-02-01T10:09:52;100195.79;;;5.41;84.19
63927;BME280;50103;47.960;21.712;2023-02-01T10:20:57;100168.16;;;5.63;84.92
63927;BME280;50103;47.960;21.712;2023-02-01T10:26:25;100166.99;;;5.71;85.64
63927;BME280;50103;47.960;21.712;2023-02-01T10:29:03;100165.42;;;5.80;85.35
63927;BME280;50103;47.960;21.712;2023-02-01T10:31:34;100158.55;;;5.86;85.41
63927;BME280;50103;47.960;21.712;2023-02-01T10:34:09;100159.61;;;5.89;85.54
63927;BME280;50103;47.960;21.712;2023-02-01T10:36:53;100156.80;;;5.95;85.44
63927;BME280;50103;47.960;21.712;2023-02-01T10:39:20;100154.52;;;6.01;86.11
63927;BME280;50103;47.960;21.712;2023-02-01T10:41:47;100156.14;;;6.11;85.52
63927;BME280;50103;47.960;21.712;2023-02-01T10:44:19;100154.23;;;6.19;83.28
63927;BME280;50103;47.960;21.712;2023-02-01T10:46:50;100156.85;;;6.22;82.88
63927;BME280;50103;47.960;21.712;2023-02-01T10:49:43;100153.30;;;6.26;82.78
63927;BME280;50103;47.960;21.712;2023-02-01T10:52:16;100150.90;;;6.30;82.11
63927;BME280;50103;47.960;21.712;2023-02-01T10:54:43;100145.49;;;6.33;81.54
63927;BME280;50103;47.960;21.712;2023-02-01T10:57:11;100141.27;;;6.36;80.97
63927;BME280;50103;47.960;21.712;2023-02-01T10:59:45;100145.10;;;6.37;80.32
63927;BME280;50103;47.960;21.712;2023-02-01T11:02:30;100136.38;;;6.38;79.21
63927;BME280;50103;47.960;21.712;2023-02-01T11:05:05;100137.66;;;6.40;78.45
63927;BME280;50103;47.960;21.712;2023-02-01T11:07:34;100134.23;;;6.42;78.21
63927;BME280;50103;47.960;21.712;2023-02-01T11:10:01;100134.58;;;6.45;78.28
63927;BME280;50103;47.960;21.712;2023-02-01T11:12:36;100131.80;;;6.44;78.60
63927;BME280;50103;47.960;21.712;2023-02-01T11:15:19;100123.88;;;6.44;79.45
63927;BME280;50103;47.960;21.712;2023-02-01T11:17:48;100118.41;;;6.47;79.69
63927;BME280;50103;47.960;21.712;2023-02-01T11:20:20;100110.65;;;6.52;80.34
63927;BME280;50103;47.960;21.712;2023-02-01T11:22:54;100106.09;;;6.58;80.21
63927;BME280;50103;47.960;21.712;2023-02-01T11:25:20;100099.92;;;6.61;80.54
63927;BME280;50103;47.960;21.712;2023-02-01T11:27:49;100098.88;;;6.66;80.24
63927;BME280;50103;47.960;21.712;2023-02-01T11:30:27;100093.52;;;6.70;80.20
63927;BME280;50103;47.960;21.712;2023-02-01T11:32:57;100088.04;;;6.76;79.31
63927;BME280;50103;47.960;21.712;2023-02-01T11:35:23;100083.88;;;6.83;79.19
63927;BME280;50103;47.960;21.712;2023-02-01T11:37:55;100076.99;;;6.88;77.25
63927;BME280;50103;47.960;21.712;2023-02-01T11:40:27;100076.43;;;6.89;77.23
63927;BME280;50103;47.960;21.712;2023-02-01T11:42:59;100076.30;;;6.91;77.61
63927;BME280;50103;47.960;21.712;2023-02-01T11:45:30;100066.55;;;6.95;77.16
63927;BME280;50103;47.960;21.712;2023-02-01T11:47:59;100066.52;;;6.98;77.44
63927;BME280;50103;47.960;21.712;2023-02-01T11:53:50;100056.36;;;7.05;75.86
63927;BME280;50103;47.960;21.712;2023-02-01T11:57:02;100051.45;;;7.08;76.08
63927;BME280;50103;47.960;21.712;2023-02-01T12:02:57;100049.20;;;7.17;74.74
63927;BME280;50103;47.960;21.712;2023-02-01T12:18:03;100033.45;;;7.19;73.36
63927;BME280;50103;47.960;21.712;2023-02-01T12:20:21;100030.06;;;7.14;71.05
63927;BME280;50103;47.960;21.712;2023-02-01T12:26:29;100023.95;;;6.97;70.75
63927;BME280;50103;47.960;21.712;2023-02-01T12:34:58;100008.41;;;7.03;71.26
63927;BME280;50103;47.960;21.712;2023-02-01T12:44:32;100007.60;;;7.13;70.59
63927;BME280;50103;47.960;21.712;2023-02-01T12:47:27;100003.17;;;7.34;71.39
63927;BME280;50103;47.960;21.712;2023-02-01T12:52:46;100001.05;;;8.09;70.30
63927;BME280;50103;47.960;21.712;2023-02-01T12:55:41;100000.93;;;8.64;67.91
63927;BME280;50103;47.960;21.712;2023-02-01T12:58:17;99996.63;;;9.21;66.63
63927;BME280;50103;47.960;21.712;2023-02-01T13:01:02;99997.30;;;9.28;62.20
63927;BME280;50103;47.960;21.712;2023-02-01T13:03:50;100003.89;;;9.00;61.28
63927;BME280;50103;47.960;21.712;2023-02-01T13:06:23;100005.91;;;8.80;62.89
63927;BME280;50103;47.960;21.712;2023-02-01T13:11:40;100003.28;;;8.61;60.87
63927;BME280;50103;47.960;21.712;2023-02-01T13:14:23;100007.63;;;8.48;59.65
63927;BME280;50103;47.960;21.712;2023-02-01T13:16:57;100002.85;;;8.33;58.64
63927;BME280;50103;47.960;21.712;2023-02-01T13:19:45;99999.25;;;8.22;59.39
63927;BME280;50103;47.960;21.712;2023-02-01T13:22:27;99994.71;;;8.11;60.26
63927;BME280;50103;47.960;21.712;2023-02-01T13:25:00;99994.62;;;8.05;60.38
63927;BME280;50103;47.960;21.712;2023-02-01T13:27:29;99996.34;;;7.98;60.90
63927;BME280;50103;47.960;21.712;2023-02-01T13:30:03;99997.17;;;7.94;61.22
63927;BME280;50103;47.960;21.712;2023-02-01T13:35:15;99991.83;;;7.80;60.98
63927;BME280;50103;47.960;21.712;2023-02-01T13:38:03;99993.58;;;7.73;62.06
63927;BME280;50103;47.960;21.712;2023-02-01T13:41:19;99985.04;;;7.69;62.60
63927;BME280;50103;47.960;21.712;2023-02-01T13:43:40;99980.46;;;7.66;62.39
63927;BME280;50103;47.960;21.712;2023-02-01T13:46:10;99976.78;;;7.64;62.34
63927;BME280;50103;47.960;21.712;2023-02-01T13:49:01;99972.40;;;7.63;62.73
63927;BME280;50103;47.960;21.712;2023-02-01T13:51:48;99974.30;;;7.64;62.72
63927;BME280;50103;47.960;21.712;2023-02-01T13:54:43;99974.00;;;7.61;63.59
63927;BME280;50103;47.960;21.712;2023-02-01T13:57:33;99971.00;;;7.58;63.25
63927;BME280;50103;47.960;21.712;2023-02-01T14:03:07;99964.90;;;7.50;63.89
63927;BME280;50103;47.960;21.712;2023-02-01T14:13:27;99953.11;;;7.19;67.70
63927;BME280;50103;47.960;21.712;2023-02-01T14:16:10;99946.55;;;7.10;69.26
63927;BME280;50103;47.960;21.712;2023-02-01T14:24:04;99940.23;;;6.96;71.50
63927;BME280;50103;47.960;21.712;2023-02-01T14:26:43;99933.59;;;6.93;72.26
63927;BME280;50103;47.960;21.712;2023-02-01T14:29:21;99934.52;;;6.90;72.75
63927;BME280;50103;47.960;21.712;2023-02-01T14:34:59;99934.92;;;6.82;72.97
63927;BME280;50103;47.960;21.712;2023-02-01T14:37:32;99932.20;;;6.78;72.59
63927;BME280;50103;47.960;21.712;2023-02-01T14:42:43;99923.64;;;6.69;71.81
63927;BME280;50103;47.960;21.712;2023-02-01T14:45:46;99924.88;;;6.66;71.64
63927;BME280;50103;47.960;21.712;2023-02-01T14:50:47;99926.58;;;6.59;70.59
63927;BME280;50103;47.960;21.712;2023-02-01T14:53:20;99926.45;;;6.56;70.21
63927;BME280;50103;47.960;21.712;2023-02-01T14:56:00;99929.75;;;6.54;69.87
63927;BME280;50103;47.960;21.712;2023-02-01T14:59:01;99929.94;;;6.54;69.73
63927;BME280;50103;47.960;21.712;2023-02-01T15:01:34;99934.55;;;6.53;69.88
63927;BME280;50103;47.960;21.712;2023-02-01T15:06:43;99941.92;;;6.53;68.75
63927;BME280;50103;47.960;21.712;2023-02-01T15:09:28;99943.65;;;6.51;68.71
63927;BME280;50103;47.960;21.712;2023-02-01T15:12:05;99944.73;;;6.48;68.27
63927;BME280;50103;47.960;21.712;2023-02-01T15:14:34;99946.29;;;6.46;68.49
63927;BME280;50103;47.960;21.712;2023-02-01T15:17:00;99942.98;;;6.43;68.75
63927;BME280;50103;47.960;21.712;2023-02-01T15:19:28;99937.27;;;6.41;68.40
63927;BME280;50103;47.960;21.712;2023-02-01T15:21:56;99942.58;;;6.38;67.86
63927;BME280;50103;47.960;21.712;2023-02-01T15:24:30;99942.61;;;6.35;68.23
63927;BME280;50103;47.960;21.712;2023-02-01T15:27:03;99943.41;;;6.31;68.29
63927;BME280;50103;47.960;21.712;2023-02-01T15:29:30;99943.80;;;6.28;68.61
63927;BME280;50103;47.960;21.712;2023-02-01T15:31:58;99946.52;;;6.23;69.00
63927;BME280;50103;47.960;21.712;2023-02-01T15:34:47;99947.13;;;6.20;69.02
63927;BME280;50103;47.960;21.712;2023-02-01T15:37:15;99950.16;;;6.14;69.49
63927;BME280;50103;47.960;21.712;2023-02-01T15:42:37;99965.77;;;6.06;70.13
63927;BME280;50103;47.960;21.712;2023-02-01T15:45:17;99967.09;;;6.02;70.62
63927;BME280;50103;47.960;21.712;2023-02-01T15:47:47;99967.98;;;5.96;71.14
63927;BME280;50103;47.960;21.712;2023-02-01T15:50:16;99972.38;;;5.90;71.59
63927;BME280;50103;47.960;21.712;2023-02-01T15:52:42;99973.22;;;5.85;72.45
63927;BME280;50103;47.960;21.712;2023-02-01T15:57:42;99978.41;;;5.73;73.66
63927;BME280;50103;47.960;21.712;2023-02-01T16:00:30;99977.79;;;5.66;74.00
63927;BME280;50103;47.960;21.712;2023-02-01T16:03:05;99985.90;;;5.59;74.78
63927;BME280;50103;47.960;21.712;2023-02-01T16:05:38;99988.65;;;5.54;75.18
63927;BME280;50103;47.960;21.712;2023-02-01T16:08:15;99988.36;;;5.48;75.70
63927;BME280;50103;47.960;21.712;2023-02-01T16:10:44;99990.75;;;5.43;76.83
63927;BME280;50103;47.960;21.712;2023-02-01T16:13:12;99996.18;;;5.35;77.50
63927;BME280;50103;47.960;21.712;2023-02-01T16:15:38;99998.88;;;5.28;78.14
63927;BME280;50103;47.960;21.712;2023-02-01T16:18:05;100001.15;;;5.22;78.46
63927;BME280;50103;47.960;21.712;2023-02-01T16:20:33;100000.33;;;5.16;78.87
63927;BME280;50103;47.960;21.712;2023-02-01T16:23:01;100000.23;;;5.12;79.93
63927;BME280;50103;47.960;21.712;2023-02-01T16:25:28;100003.63;;;5.05;80.61
63927;BME280;50103;47.960;21.712;2023-02-01T16:27:54;100012.51;;;4.97;81.22
63927;BME280;50103;47.960;21.712;2023-02-01T16:30:20;100018.52;;;4.90;81.93
63927;BME280;50103;47.960;21.712;2023-02-01T16:32:59;100012.96;;;4.83;82.66
63927;BME280;50103;47.960;21.712;2023-02-01T16:35:30;100017.80;;;4.75;84.37
63927;BME280;50103;47.960;21.712;2023-02-01T16:38:13;100009.11;;;4.65;85.40
63927;BME280;50103;47.960;21.712;2023-02-01T16:40:42;100005.40;;;4.56;86.45
63927;BME280;50103;47.960;21.712;2023-02-01T16:43:13;100007.05;;;4.49;86.59
63927;BME280;50103;47.960;21.712;2023-02-01T16:45:40;100001.73;;;4.44;86.98
63927;BME280;50103;47.960;21.712;2023-02-01T16:48:06;100000.84;;;4.38;88.02
63927;BME280;50103;47.960;21.712;2023-02-01T16:50:32;100004.34;;;4.32;87.94
63927;BME280;50103;47.960;21.712;2023-02-01T16:52:58;99994.86;;;4.26;88.29
63927;BME280;50103;47.960;21.712;2023-02-01T16:55:24;99995.56;;;4.19;88.78
63927;BME280;50103;47.960;21.712;2023-02-01T16:57:51;99995.93;;;4.13;88.90
63927;BME280;50103;47.960;21.712;2023-02-01T17:00:16;100000.97;;;4.08;89.29
63927;BME280;50103;47.960;21.712;2023-02-01T17:02:43;99996.88;;;4.02;89.66
63927;BME280;50103;47.960;21.712;2023-02-01T17:05:12;99996.06;;;3.98;89.73
63927;BME280;50103;47.960;21.712;2023-02-01T17:07:38;99993.11;;;3.94;90.05
63927;BME280;50103;47.960;21.712;2023-02-01T17:10:08;99983.72;;;3.90;90.53
63927;BME280;50103;47.960;21.712;2023-02-01T17:12:43;99982.02;;;3.83;90.70
63927;BME280;50103;47.960;21.712;2023-02-01T17:15:10;99982.81;;;3.78;90.84
63927;BME280;50103;47.960;21.712;2023-02-01T17:17:37;99990.30;;;3.72;91.00
63927;BME280;50103;47.960;21.712;2023-02-01T17:20:04;99995.00;;;3.66;91.18
63927;BME280;50103;47.960;21.712;2023-02-01T17:22:31;99994.21;;;3.61;91.84
63927;BME280;50103;47.960;21.712;2023-02-01T17:24:56;99996.90;;;3.57;91.66
63927;BME280;50103;47.960;21.712;2023-02-01T17:27:22;100002.36;;;3.53;91.77
63927;BME280;50103;47.960;21.712;2023-02-01T17:29:47;100006.18;;;3.50;92.62
63927;BME280;50103;47.960;21.712;2023-02-01T17:32:21;100005.56;;;3.45;92.73
63927;BME280;50103;47.960;21.712;2023-02-01T17:34:47;100000.55;;;3.41;92.42
63927;BME280;50103;47.960;21.712;2023-02-01T17:37:33;99999.15;;;3.38;93.39
63927;BME280;50103;47.960;21.712;2023-02-01T17:40:00;100002.78;;;3.32;93.49
63927;BME280;50103;47.960;21.712;2023-02-01T17:42:28;99992.60;;;3.29;93.37
63927;BME280;50103;47.960;21.712;2023-02-01T17:45:26;99992.52;;;3.24;93.68
63927;BME280;50103;47.960;21.712;2023-02-01T17:47:53;99994.20;;;3.19;93.93
63927;BME280;50103;47.960;21.712;2023-02-01T17:50:18;99993.59;;;3.17;94.22
63927;BME280;50103;47.960;21.712;2023-02-01T17:52:44;99989.52;;;3.14;94.29
63927;BME280;50103;47.960;21.712;2023-02-01T17:55:18;99984.94;;;3.11;94.21
63927;BME280;50103;47.960;21.712;2023-02-01T17:57:46;99986.91;;;3.10;94.58
63927;BME280;50103;47.960;21.712;2023-02-01T18:00:12;99984.73;;;3.09;94.19
63927;BME280;50103;47.960;21.712;2023-02-01T18:02:39;99989.96;;;3.06;94.64
63927;BME280;50103;47.960;21.712;2023-02-01T18:05:27;99987.11;;;3.04;94.75
63927;BME280;50103;47.960;21.712;2023-02-01T18:07:53;99985.77;;;2.99;94.96
63927;BME280;50103;47.960;21.712;2023-02-01T18:10:19;99991.20;;;2.95;94.98
63927;BME280;50103;47.960;21.712;2023-02-01T18:12:45;99999.58;;;2.92;95.12
63927;BME280;50103;47.960;21.712;2023-02-01T18:15:18;100000.73;;;2.91;94.84
63927;BME280;50103;47.960;21.712;2023-02-01T18:17:45;99999.45;;;2.88;94.91
63927;BME280;50103;47.960;21.712;2023-02-01T18:20:13;99998.46;;;2.87;95.03
63927;BME280;50103;47.960;21.712;2023-02-01T18:22:40;99997.85;;;2.85;94.96
63927;BME280;50103;47.960;21.712;2023-02-01T18:25:25;99996.96;;;2.85;95.04
63927;BME280;50103;47.960;21.712;2023-02-01T18:27:53;99990.20;;;2.85;95.17
63927;BME280;50103;47.960;21.712;2023-02-01T18:30:20;99987.79;;;2.84;94.91
63927;BME280;50103;47.960;21.712;2023-02-01T18:32:47;99985.61;;;2.81;95.20
63927;BME280;50103;47.960;21.712;2023-02-01T18:35:24;99992.44;;;2.81;95.06
63927;BME280;50103;47.960;21.712;2023-02-01T18:37:50;99989.56;;;2.79;95.23
63927;BME280;50103;47.960;21.712;2023-02-01T18:40:19;99991.35;;;2.78;95.22
63927;BME280;50103;47.960;21.712;2023-02-01T18:42:45;99995.58;;;2.78;95.38
63927;BME280;50103;47.960;21.712;2023-02-01T18:47:51;99993.05;;;2.76;95.62
63927;BME280;50103;47.960;21.712;2023-02-01T18:50:17;99986.00;;;2.74;95.13
63927;BME280;50103;47.960;21.712;2023-02-01T18:52:43;99984.77;;;2.74;95.41
63927;BME280;50103;47.960;21.712;2023-02-01T18:55:09;99982.42;;;2.72;95.13
63927;BME280;50103;47.960;21.712;2023-02-01T18:57:35;99980.68;;;2.72;95.49
63927;BME280;50103;47.960;21.712;2023-02-01T19:00:04;99981.43;;;2.71;95.21
63927;BME280;50103;47.960;21.712;2023-02-01T19:02:30;99984.64;;;2.70;95.16
63927;BME280;50103;47.960;21.712;2023-02-01T19:04:55;99985.33;;;2.70;95.22
63927;BME280;50103;47.960;21.712;2023-02-01T19:07:22;99987.98;;;2.69;95.34
63927;BME280;50103;47.960;21.712;2023-02-01T19:09:48;99992.37;;;2.69;95.61
63927;BME280;50103;47.960;21.712;2023-02-01T19:12:13;99989.04;;;2.69;95.56
63927;BME280;50103;47.960;21.712;2023-02-01T19:14:39;99997.46;;;2.68;95.28
63927;BME280;50103;47.960;21.712;2023-02-01T19:17:07;99998.70;;;2.68;95.21
63927;BME280;50103;47.960;21.712;2023-02-01T19:19:32;100004.11;;;2.68;95.50
63927;BME280;50103;47.960;21.712;2023-02-01T19:21:58;100000.67;;;2.67;95.54
63927;BME280;50103;47.960;21.712;2023-02-01T19:24:23;99994.89;;;2.67;95.47
63927;BME280;50103;47.960;21.712;2023-02-01T19:26:52;99987.75;;;2.67;95.82
63927;BME280;50103;47.960;21.712;2023-02-01T19:29:18;99987.95;;;2.66;95.51
63927;BME280;50103;47.960;21.712;2023-02-01T19:31:43;99987.58;;;2.66;95.65
63927;BME280;50103;47.960;21.712;2023-02-01T19:34:12;99991.41;;;2.67;95.74
63927;BME280;50103;47.960;21.712;2023-02-01T19:36:38;99992.85;;;2.66;95.91
63927;BME280;50103;47.960;21.712;2023-02-01T19:39:05;99995.77;;;2.67;95.88
63927;BME280;50103;47.960;21.712;2023-02-01T19:41:31;99994.20;;;2.67;96.38
63927;BME280;50103;47.960;21.712;2023-02-01T19:43:57;99999.52;;;2.65;96.55
63927;BME280;50103;47.960;21.712;2023-02-01T19:46:23;100001.17;;;2.64;96.67
63927;BME280;50103;47.960;21.712;2023-02-01T19:48:49;100001.05;;;2.62;96.53
63927;BME280;50103;47.960;21.712;2023-02-01T19:51:15;100005.08;;;2.63;96.92
63927;BME280;50103;47.960;21.712;2023-02-01T19:53:40;100009.77;;;2.60;96.75
63927;BME280;50103;47.960;21.712;2023-02-01T19:56:06;100009.98;;;2.59;96.53
63927;BME280;50103;47.960;21.712;2023-02-01T19:58:32;100014.56;;;2.59;96.71
63927;BME280;50103;47.960;21.712;2023-02-01T20:00:58;100018.41;;;2.58;96.72
